createdAt,value
2023-03-17T00:00:14.571Z,52.51
2023-03-17T00:02:42.999Z,52.32
2023-03-17T00:05:17.967Z,52.32
2023-03-17T00:07:46.384Z,52.16
2023-03-17T00:10:18.453Z,51.29
2023-03-17T00:12:49.554Z,51.94
2023-03-17T00:15:17.769Z,52.38
2023-03-17T00:17:45.524Z,51.65
2023-03-17T00:20:18.945Z,51.21
2023-03-17T00:22:49.016Z,51.32
2023-03-17T00:25:27.331Z,51.45
2023-03-17T00:27:55.472Z,51.13
2023-03-17T00:30:23.150Z,50.97
2023-03-17T00:32:57.567Z,51.53
2023-03-17T00:35:27.814Z,51.73
2023-03-17T00:37:57.161Z,51.72
2023-03-17T00:40:31.050Z,51.32
2023-03-17T00:43:05.656Z,51.15
2023-03-17T00:45:32.358Z,51.15
2023-03-17T00:47:59.050Z,51.44
2023-03-17T00:50:28.663Z,51.52
2023-03-17T00:52:57.609Z,51.51
2023-03-17T00:55:26.706Z,51.54
2023-03-17T00:57:53.822Z,51.49
2023-03-17T01:00:24.696Z,51.07
2023-03-17T01:02:52.927Z,51.12
2023-03-17T01:05:24.150Z,51.11
2023-03-17T01:07:57.238Z,50.98
2023-03-17T01:10:26.796Z,50.96
2023-03-17T01:12:55.549Z,51.24
2023-03-17T01:15:22.743Z,51.11
2023-03-17T01:17:50.683Z,50.50
2023-03-17T01:20:27.790Z,50.67
2023-03-17T01:22:55.191Z,50.89
2023-03-17T01:25:22.139Z,50.50
2023-03-17T01:27:49.267Z,50.62
2023-03-17T01:30:32.312Z,50.65
2023-03-17T01:33:00.054Z,51.02
2023-03-17T01:35:29.463Z,50.64
2023-03-17T01:37:57.198Z,50.78
2023-03-17T01:40:28.085Z,50.73
2023-03-17T01:43:02.591Z,50.84
2023-03-17T01:46:06.893Z,50.69
2023-03-17T01:48:38.661Z,50.77
2023-03-17T01:51:07.444Z,50.78
2023-03-17T01:53:35.920Z,50.69
2023-03-17T01:56:03.655Z,50.72
2023-03-17T01:58:31.699Z,50.97
2023-03-17T02:00:58.148Z,50.72
2023-03-17T02:03:26.122Z,50.82
2023-03-17T02:05:54.962Z,50.68
2023-03-17T02:08:21.476Z,50.44
2023-03-17T02:10:49.660Z,50.67
2023-03-17T02:13:16.758Z,50.45
2023-03-17T02:15:50.911Z,50.81
2023-03-17T02:18:20.732Z,50.53
2023-03-17T02:20:47.107Z,50.64
2023-03-17T02:23:22.329Z,50.59
2023-03-17T02:25:51.935Z,50.49
2023-03-17T02:28:26.026Z,50.30
2023-03-17T02:30:52.881Z,50.44
2023-03-17T02:33:19.624Z,50.27
2023-03-17T02:35:47.811Z,50.79
2023-03-17T02:38:18.452Z,50.10
2023-03-17T02:40:44.954Z,50.05
2023-03-17T02:43:11.473Z,50.08
2023-03-17T02:45:37.894Z,50.26
2023-03-17T02:48:05.612Z,49.73
2023-03-17T02:50:32.837Z,49.13
2023-03-17T02:52:59.225Z,49.44
2023-03-17T02:55:28.718Z,49.23
2023-03-17T02:57:55.114Z,49.40
2023-03-17T03:00:22.082Z,49.22
2023-03-17T03:02:48.454Z,49.43
2023-03-17T03:05:14.912Z,49.28
2023-03-17T03:07:41.531Z,48.73
2023-03-17T03:10:09.322Z,48.70
2023-03-17T03:12:36.264Z,48.74
2023-03-17T03:15:02.743Z,48.63
2023-03-17T03:17:29.142Z,48.56
2023-03-17T03:19:55.615Z,48.54
2023-03-17T03:22:22.050Z,48.83
2023-03-17T03:24:48.688Z,48.72
2023-03-17T03:27:15.110Z,48.86
2023-03-17T03:29:41.800Z,48.51
2023-03-17T03:32:08.689Z,48.37
2023-03-17T03:34:35.381Z,48.93
2023-03-17T03:37:02.096Z,49.07
2023-03-17T03:39:28.583Z,48.86
2023-03-17T03:41:58.363Z,48.76
2023-03-17T03:44:25.043Z,48.79
2023-03-17T03:46:51.876Z,48.52
2023-03-17T03:49:18.517Z,48.62
2023-03-17T03:51:44.920Z,48.48
2023-03-17T03:54:11.396Z,48.86
2023-03-17T03:56:37.840Z,48.43
2023-03-17T03:59:04.410Z,48.69
2023-03-17T04:01:30.871Z,48.73
2023-03-17T04:03:57.280Z,48.74
2023-03-17T04:06:26.744Z,48.64
2023-03-17T04:08:53.214Z,48.65
2023-03-17T04:11:19.636Z,48.60
2023-03-17T04:13:46.252Z,48.84
2023-03-17T04:16:12.769Z,48.55
2023-03-17T04:18:39.326Z,48.36
2023-03-17T04:21:07.064Z,48.82
2023-03-17T04:23:33.632Z,48.76
2023-03-17T04:26:00.099Z,48.22
2023-03-17T04:28:26.508Z,48.38
2023-03-17T04:30:52.922Z,48.36
2023-03-17T04:33:20.295Z,48.12
2023-03-17T04:35:46.800Z,47.95
2023-03-17T04:38:13.618Z,48.72
2023-03-17T04:40:40.165Z,48.56
2023-03-17T04:43:06.586Z,48.50
2023-03-17T04:45:33.298Z,48.73
2023-03-17T04:47:59.829Z,49.44
2023-03-17T04:50:26.562Z,49.30
2023-03-17T04:52:53.013Z,49.30
2023-03-17T04:55:19.669Z,49.19
2023-03-17T04:57:46.506Z,49.36
2023-03-17T05:00:13.405Z,49.53
2023-03-17T05:02:39.981Z,49.92
2023-03-17T05:05:06.910Z,50.01
2023-03-17T05:07:34.236Z,50.01
2023-03-17T05:10:00.945Z,50.05
2023-03-17T05:12:27.764Z,50.19
2023-03-17T05:15:01.628Z,50.40
2023-03-17T05:17:28.064Z,50.30
2023-03-17T05:19:54.497Z,50.44
2023-03-17T05:22:21.181Z,50.35
2023-03-17T05:24:47.736Z,50.18
2023-03-17T05:27:14.155Z,50.01
2023-03-17T05:29:40.632Z,50.49
2023-03-17T05:32:07.580Z,50.52
2023-03-17T05:34:34.019Z,50.84
2023-03-17T05:37:00.852Z,50.72
2023-03-17T05:39:27.970Z,51.15
2023-03-17T05:41:54.292Z,51.07
2023-03-17T05:44:20.826Z,50.96
2023-03-17T05:46:47.588Z,51.49
2023-03-17T05:49:14.040Z,50.98
2023-03-17T05:51:41.903Z,51.32
2023-03-17T05:54:08.709Z,51.15
2023-03-17T05:56:35.233Z,50.70
2023-03-17T05:59:02.334Z,50.95
2023-03-17T06:01:29.570Z,50.75
2023-03-17T06:03:56.166Z,50.89
2023-03-17T06:06:24.571Z,50.80
2023-03-17T06:08:51.640Z,51.12
2023-03-17T06:11:19.944Z,50.98
2023-03-17T06:13:46.955Z,50.87
2023-03-17T06:16:13.738Z,50.55
2023-03-17T06:18:40.612Z,50.67
2023-03-17T06:21:07.305Z,51.04
2023-03-17T06:23:33.847Z,50.76
2023-03-17T06:26:00.643Z,50.98
2023-03-17T06:28:29.596Z,51.04
2023-03-17T06:30:56.217Z,50.59
2023-03-17T06:33:22.758Z,50.43
2023-03-17T06:35:49.404Z,50.39
2023-03-17T06:38:15.866Z,50.55
2023-03-17T06:40:42.367Z,50.39
2023-03-17T06:43:11.244Z,50.18
2023-03-17T06:45:37.670Z,50.16
2023-03-17T06:48:04.243Z,50.13
2023-03-17T06:50:30.890Z,50.35
2023-03-17T06:52:57.277Z,49.92
2023-03-17T06:55:23.737Z,49.94
2023-03-17T06:57:51.386Z,49.77
2023-03-17T07:00:19.190Z,49.97
2023-03-17T07:02:45.905Z,49.54
2023-03-17T07:05:13.925Z,49.39
2023-03-17T07:07:41.068Z,49.27
2023-03-17T07:10:10.363Z,49.35
2023-03-17T07:12:37.217Z,49.21
2023-03-17T07:15:03.848Z,48.52
2023-03-17T07:17:30.739Z,48.04
2023-03-17T07:20:00.146Z,48.56
2023-03-17T07:22:27.173Z,48.33
2023-03-17T07:24:53.599Z,48.70
2023-03-17T07:27:22.849Z,48.39
2023-03-17T07:29:49.707Z,48.20
2023-03-17T07:32:16.243Z,47.44
2023-03-17T07:34:43.037Z,47.52
2023-03-17T07:37:10.369Z,47.28
2023-03-17T07:39:36.799Z,47.32
2023-03-17T07:42:03.382Z,47.13
2023-03-17T07:44:30.491Z,46.55
2023-03-17T07:46:57.004Z,47.02
2023-03-17T07:49:40.038Z,46.79
2023-03-17T07:52:09.453Z,46.62
2023-03-17T07:54:37.061Z,45.96
2023-03-17T07:57:04.391Z,46.34
2023-03-17T07:59:31.603Z,46.26
2023-03-17T08:01:59.669Z,46.67
2023-03-17T08:04:27.504Z,46.85
2023-03-17T08:06:54.611Z,46.68
2023-03-17T08:09:22.320Z,46.01
2023-03-17T08:11:49.393Z,46.11
2023-03-17T08:14:15.824Z,45.90
2023-03-17T08:16:42.847Z,45.87
2023-03-17T08:19:10.780Z,45.90
2023-03-17T08:21:38.301Z,47.08
2023-03-17T08:24:05.310Z,46.03
2023-03-17T08:26:32.333Z,45.96
2023-03-17T08:28:58.883Z,45.07
2023-03-17T08:31:25.386Z,45.07
2023-03-17T08:33:54.314Z,45.37
2023-03-17T08:36:21.718Z,45.05
2023-03-17T08:38:48.830Z,44.27
2023-03-17T08:41:16.641Z,44.05
2023-03-17T08:43:43.928Z,43.26
2023-03-17T08:46:19.963Z,43.42
2023-03-17T08:48:48.481Z,43.59
2023-03-17T08:51:18.578Z,43.12
2023-03-17T08:53:46.565Z,43.35
2023-03-17T08:56:14.120Z,43.04
2023-03-17T08:58:42.554Z,42.58
2023-03-17T09:01:10.919Z,42.30
2023-03-17T09:03:39.467Z,42.06
2023-03-17T09:06:07.625Z,42.34
2023-03-17T09:08:37.555Z,42.40
2023-03-17T09:11:05.414Z,41.34
2023-03-17T09:13:33.291Z,41.25
2023-03-17T09:16:01.383Z,42.31
2023-03-17T09:18:27.897Z,40.80
2023-03-17T09:20:54.366Z,40.15
2023-03-17T09:23:20.937Z,39.22
2023-03-17T09:25:47.876Z,39.30
2023-03-17T09:28:14.318Z,38.86
2023-03-17T09:30:44.652Z,40.31
2023-03-17T09:35:42.053Z,39.54
2023-03-17T09:38:09.506Z,39.39
2023-03-17T09:40:46.721Z,39.55
2023-03-17T09:43:13.114Z,38.98
2023-03-17T09:45:43.541Z,37.97
2023-03-17T09:48:26.139Z,38.78
2023-03-17T09:51:05.044Z,38.06
2023-03-17T09:53:39.458Z,38.13
2023-03-17T09:56:11.620Z,38.20
2023-03-17T09:58:40.639Z,38.61
2023-03-17T10:01:10.370Z,38.15
2023-03-17T10:03:37.515Z,37.77
2023-03-17T10:06:18.747Z,36.84
2023-03-17T10:08:53.778Z,36.47
2023-03-17T10:11:44.702Z,36.52
2023-03-17T10:14:28.768Z,37.04
2023-03-17T10:17:03.718Z,36.09
2023-03-17T10:19:42.272Z,36.25
2023-03-17T10:22:28.661Z,36.23
2023-03-17T10:25:01.205Z,35.98
2023-03-17T10:27:35.101Z,36.90
2023-03-17T10:30:04.024Z,36.65
2023-03-17T10:32:33.160Z,35.95
2023-03-17T10:34:59.621Z,34.76
2023-03-17T10:37:29.642Z,35.36
2023-03-17T10:39:57.383Z,36.24
2023-03-17T10:42:35.652Z,36.58
2023-03-17T10:45:14.305Z,36.13
2023-03-17T10:47:44.686Z,35.24
2023-03-17T10:50:28.832Z,34.59
2023-03-17T10:53:08.967Z,35.30
2023-03-17T10:55:38.206Z,35.43
2023-03-17T10:58:16.310Z,35.72
2023-03-17T11:00:57.243Z,35.56
2023-03-17T11:03:35.331Z,34.18
2023-03-17T11:06:34.053Z,35.17
2023-03-17T11:09:09.558Z,35.66
2023-03-17T11:11:47.109Z,35.80
2023-03-17T11:14:16.252Z,34.97
2023-03-17T11:16:53.520Z,34.61
2023-03-17T11:19:29.854Z,34.72
2023-03-17T11:22:07.343Z,35.16
2023-03-17T11:24:42.755Z,34.94
2023-03-17T11:27:24.150Z,35.98
2023-03-17T11:30:21.837Z,34.66
2023-03-17T11:32:58.037Z,34.32
2023-03-17T11:35:38.365Z,34.29
2023-03-17T11:38:20.196Z,33.59
2023-03-17T11:41:06.440Z,34.88
2023-03-17T11:44:08.026Z,34.42
2023-03-17T11:46:59.597Z,34.35
2023-03-17T11:49:38.818Z,34.06
2023-03-17T11:52:58.072Z,33.20
2023-03-17T11:55:45.351Z,33.14
2023-03-17T11:58:25.843Z,32.45
2023-03-17T12:00:57.125Z,33.97
2023-03-17T12:03:48.953Z,33.60
2023-03-17T12:06:28.161Z,33.14
2023-03-17T12:09:07.722Z,32.72
2023-03-17T12:11:40.338Z,33.86
2023-03-17T12:14:19.118Z,33.01
2023-03-17T12:17:30.268Z,33.92
2023-03-17T12:20:05.591Z,33.98
2023-03-17T12:23:05.498Z,33.78
2023-03-17T12:25:57.675Z,34.40
2023-03-17T12:28:32.966Z,34.57
2023-03-17T12:31:33.351Z,33.45
2023-03-17T12:34:10.265Z,33.95
2023-03-17T12:36:38.247Z,34.73
2023-03-17T12:39:18.173Z,34.10
2023-03-17T12:41:53.774Z,33.70
2023-03-17T12:44:39.240Z,34.09
2023-03-17T12:47:12.099Z,34.22
2023-03-17T12:50:04.611Z,34.13
2023-03-17T12:52:58.742Z,34.42
2023-03-17T12:55:27.924Z,34.85
2023-03-17T12:58:02.164Z,34.15
2023-03-17T13:00:32.137Z,33.67
2023-03-17T13:03:26.707Z,34.68
2023-03-17T13:06:00.581Z,35.04
2023-03-17T13:08:33.846Z,35.00
2023-03-17T13:11:18.427Z,35.81
2023-03-17T13:13:48.071Z,35.76
2023-03-17T13:16:34.606Z,36.13
2023-03-17T13:19:24.875Z,35.18
2023-03-17T13:22:04.158Z,35.58
2023-03-17T13:24:47.355Z,35.38
2023-03-17T13:27:34.190Z,35.72
2023-03-17T13:30:40.557Z,35.97
2023-03-17T13:33:10.164Z,35.28
2023-03-17T13:35:41.379Z,34.59
2023-03-17T13:38:34.947Z,34.47
2023-03-17T13:41:20.075Z,35.17
2023-03-17T13:44:12.315Z,35.83
2023-03-17T13:46:41.795Z,36.28
2023-03-17T13:49:26.790Z,36.19
2023-03-17T13:51:59.878Z,36.88
2023-03-17T13:54:26.919Z,37.17
2023-03-17T13:56:55.133Z,36.29
2023-03-17T13:59:31.871Z,34.98
2023-03-17T14:02:01.488Z,35.70
2023-03-17T14:04:44.750Z,35.44
2023-03-17T14:07:25.037Z,35.11
2023-03-17T14:09:57.416Z,34.73
2023-03-17T14:12:51.309Z,35.28
2023-03-17T14:15:42.087Z,35.49
2023-03-17T14:18:15.500Z,35.80
2023-03-17T14:20:57.485Z,36.22
2023-03-17T14:23:24.937Z,35.83
2023-03-17T14:25:54.343Z,36.42
2023-03-17T14:28:27.383Z,35.46
2023-03-17T14:31:03.218Z,36.01
2023-03-17T14:33:33.652Z,36.37
2023-03-17T14:36:02.175Z,35.27
2023-03-17T14:38:31.249Z,35.73
2023-03-17T14:41:07.144Z,36.31
2023-03-17T14:43:36.232Z,36.06
2023-03-17T14:46:33.408Z,36.13
2023-03-17T14:49:14.323Z,36.35
2023-03-17T14:51:42.054Z,36.42
2023-03-17T14:54:23.297Z,35.56
2023-03-17T14:57:04.455Z,35.83
2023-03-17T14:59:38.381Z,36.46
2023-03-17T15:02:21.462Z,36.00
2023-03-17T15:04:57.496Z,36.24
2023-03-17T15:07:42.834Z,37.18
2023-03-17T15:10:31.127Z,37.04
2023-03-17T15:13:05.690Z,37.10
2023-03-17T15:15:37.998Z,37.20
2023-03-17T15:18:11.977Z,37.05
2023-03-17T15:20:38.487Z,36.75
2023-03-17T15:23:22.106Z,36.34
2023-03-17T15:25:57.820Z,37.05
2023-03-17T15:28:33.332Z,37.49
2023-03-17T15:31:13.348Z,36.83
2023-03-17T15:33:41.493Z,37.19
2023-03-17T15:36:29.304Z,37.15
2023-03-17T15:38:58.016Z,38.05
2023-03-17T15:41:24.515Z,37.98
2023-03-17T15:43:51.154Z,38.74
2023-03-17T15:46:27.457Z,38.59
2023-03-17T15:48:56.688Z,38.50
2023-03-17T15:51:23.161Z,38.69
2023-03-17T15:53:52.578Z,39.09
2023-03-17T15:56:21.316Z,39.18
2023-03-17T15:58:49.295Z,39.47
2023-03-17T16:01:19.736Z,39.38
2023-03-17T16:03:48.120Z,39.78
2023-03-17T16:06:21.351Z,40.02
2023-03-17T16:08:48.812Z,40.36
2023-03-17T16:11:25.716Z,40.54
2023-03-17T16:13:52.282Z,40.51
2023-03-17T16:16:35.048Z,40.57
2023-03-17T16:19:04.731Z,40.65
2023-03-17T16:21:32.363Z,40.46
2023-03-17T16:23:59.074Z,40.65
2023-03-17T16:26:25.504Z,40.98
2023-03-17T16:28:52.053Z,41.32
2023-03-17T16:31:30.229Z,40.83
2023-03-17T16:33:57.328Z,41.10
2023-03-17T16:36:25.041Z,40.93
2023-03-17T16:38:52.139Z,41.43
2023-03-17T16:41:21.685Z,41.53
2023-03-17T16:43:51.317Z,41.37
2023-03-17T16:46:19.746Z,41.39
2023-03-17T16:48:46.222Z,41.65
2023-03-17T16:51:12.642Z,41.48
2023-03-17T16:53:39.425Z,41.71
2023-03-17T16:56:13.708Z,41.81
2023-03-17T16:58:40.276Z,42.43
2023-03-17T17:01:13.727Z,42.44
2023-03-17T17:03:40.655Z,42.49
2023-03-17T17:06:08.725Z,42.66
2023-03-17T17:08:35.354Z,43.15
2023-03-17T17:11:02.837Z,42.94
2023-03-17T17:13:29.324Z,43.01
2023-03-17T17:15:56.275Z,43.04
2023-03-17T17:18:24.509Z,43.33
2023-03-17T17:20:53.242Z,43.24
2023-03-17T17:23:22.181Z,43.20
2023-03-17T17:25:49.392Z,43.21
2023-03-17T17:28:17.582Z,43.33
2023-03-17T17:30:48.259Z,43.43
2023-03-17T17:33:16.204Z,43.44
2023-03-17T17:35:43.977Z,43.71
2023-03-17T17:38:28.196Z,43.71
2023-03-17T17:40:56.421Z,43.59
2023-03-17T17:43:24.526Z,43.68
2023-03-17T17:45:51.996Z,43.92
2023-03-17T17:48:22.446Z,44.12
2023-03-17T17:50:49.448Z,44.29
2023-03-17T17:53:15.985Z,43.98
2023-03-17T17:55:44.153Z,44.34
2023-03-17T17:58:16.278Z,44.28
2023-03-17T18:00:43.134Z,44.51
2023-03-17T18:03:10.154Z,44.40
2023-03-17T18:05:36.914Z,44.39
2023-03-17T18:08:04.003Z,44.50
2023-03-17T18:10:30.822Z,44.53
2023-03-17T18:12:57.870Z,44.86
2023-03-17T18:15:26.575Z,45.02
2023-03-17T18:17:53.965Z,44.86
2023-03-17T18:20:21.982Z,45.21
2023-03-17T18:22:49.689Z,45.20
2023-03-17T18:25:17.255Z,45.13
2023-03-17T18:27:43.966Z,45.10
2023-03-17T18:30:13.967Z,45.25
2023-03-17T18:32:42.861Z,45.01
2023-03-17T18:35:14.521Z,45.19
2023-03-17T18:37:41.216Z,45.21
2023-03-17T18:40:18.007Z,45.17
2023-03-17T18:42:45.338Z,45.19
2023-03-17T18:45:12.787Z,45.13
2023-03-17T18:47:41.685Z,45.07
2023-03-17T18:50:10.577Z,45.07
2023-03-17T18:52:39.600Z,44.99
2023-03-17T18:55:07.294Z,44.86
2023-03-17T18:57:33.780Z,45.24
2023-03-17T19:00:00.215Z,45.23
2023-03-17T19:02:26.695Z,45.12
2023-03-17T19:04:53.109Z,45.05
2023-03-17T19:07:19.745Z,44.88
2023-03-17T19:09:46.322Z,44.89
2023-03-17T19:12:13.477Z,44.81
2023-03-17T19:14:40.359Z,44.66
2023-03-17T19:17:07.548Z,44.78
2023-03-17T19:19:35.343Z,44.76
2023-03-17T19:22:02.175Z,44.77
2023-03-17T19:24:29.143Z,44.39
2023-03-17T19:26:55.559Z,44.68
2023-03-17T19:29:22.107Z,44.61
2023-03-17T19:31:48.882Z,44.36
2023-03-17T19:34:15.460Z,44.14
2023-03-17T19:36:43.584Z,44.12
2023-03-17T19:39:10.920Z,44.44
2023-03-17T19:41:37.459Z,44.31
2023-03-17T19:44:06.889Z,44.28
2023-03-17T19:46:34.685Z,44.16
2023-03-17T19:49:01.637Z,44.07
2023-03-17T19:51:28.712Z,44.01
2023-03-17T19:53:55.126Z,43.77
2023-03-17T19:56:23.070Z,43.91
2023-03-17T19:58:49.697Z,43.93
2023-03-17T20:01:17.223Z,44.23
2023-03-17T20:03:43.878Z,43.91
2023-03-17T20:06:11.305Z,44.33
2023-03-17T20:08:37.796Z,43.81
2023-03-17T20:11:05.717Z,43.98
2023-03-17T20:13:34.631Z,43.87
2023-03-17T20:16:01.911Z,44.21
2023-03-17T20:18:29.270Z,43.85
2023-03-17T20:20:57.517Z,43.59
2023-03-17T20:23:25.177Z,43.59
2023-03-17T20:25:52.620Z,43.40
2023-03-17T20:28:21.388Z,43.72
2023-03-17T20:30:49.335Z,43.27
2023-03-17T20:33:16.495Z,43.63
2023-03-17T20:35:44.136Z,43.38
2023-03-17T20:38:13.425Z,43.39
2023-03-17T20:40:40.681Z,43.13
2023-03-17T20:43:07.829Z,43.44
2023-03-17T20:45:34.390Z,43.38
2023-03-17T20:48:02.007Z,43.33
2023-03-17T20:50:29.430Z,43.33
2023-03-17T20:52:55.848Z,43.24
2023-03-17T20:55:22.265Z,43.29
2023-03-17T20:57:49.815Z,43.13
2023-03-17T21:00:20.168Z,43.14
2023-03-17T21:02:50.095Z,43.02
2023-03-17T21:05:25.726Z,43.04
2023-03-17T21:07:52.656Z,43.14
2023-03-17T21:10:22.489Z,43.07
2023-03-17T21:12:48.951Z,43.11
2023-03-17T21:15:16.722Z,42.80
2023-03-17T21:17:43.226Z,42.97
2023-03-17T21:20:12.577Z,42.66
2023-03-17T21:22:40.139Z,42.65
2023-03-17T21:25:08.746Z,42.59
2023-03-17T21:27:39.433Z,42.78
2023-03-17T21:30:09.632Z,42.59
2023-03-17T21:32:36.299Z,42.55
2023-03-17T21:35:02.968Z,42.45
2023-03-17T21:37:29.467Z,42.44
2023-03-17T21:39:56.646Z,42.25
2023-03-17T21:42:24.599Z,42.32
2023-03-17T21:44:52.262Z,42.33
2023-03-17T21:47:19.552Z,42.25
2023-03-17T21:49:46.331Z,42.21
2023-03-17T21:52:14.890Z,42.18
2023-03-17T21:54:41.751Z,42.51
2023-03-17T21:57:08.227Z,42.26
2023-03-17T21:59:35.761Z,42.36
2023-03-17T22:02:02.876Z,42.33
2023-03-17T22:04:29.244Z,42.38
2023-03-17T22:06:56.073Z,42.18
2023-03-17T22:09:22.589Z,42.38
2023-03-17T22:11:49.761Z,42.24
2023-03-17T22:14:20.146Z,42.23
2023-03-17T22:16:50.246Z,42.09
2023-03-17T22:19:18.227Z,42.37
2023-03-17T22:21:45.791Z,42.35
2023-03-17T22:24:12.626Z,42.49
2023-03-17T22:26:39.212Z,42.51
2023-03-17T22:29:05.628Z,42.40
2023-03-17T22:31:32.180Z,42.32
2023-03-17T22:33:59.572Z,42.28
2023-03-17T22:36:26.612Z,42.15
2023-03-17T22:38:53.289Z,42.25
2023-03-17T22:41:21.636Z,42.05
2023-03-17T22:43:51.233Z,42.03
2023-03-17T22:46:18.613Z,41.97
2023-03-17T22:48:46.731Z,42.26
2023-03-17T22:51:17.056Z,42.38
2023-03-17T22:53:44.625Z,41.77
2023-03-17T22:56:12.771Z,41.95
2023-03-17T22:58:39.551Z,41.80
2023-03-17T23:01:06.680Z,41.83
2023-03-17T23:03:34.157Z,41.57
2023-03-17T23:06:01.886Z,41.86
2023-03-17T23:08:31.652Z,41.99
2023-03-17T23:11:00.524Z,41.86
2023-03-17T23:13:27.710Z,41.87
2023-03-17T23:15:54.581Z,41.61
2023-03-17T23:18:21.006Z,41.69
2023-03-17T23:20:47.756Z,41.79
2023-03-17T23:23:14.590Z,42.03
2023-03-17T23:25:41.280Z,41.87
2023-03-17T23:28:08.255Z,41.93
2023-03-17T23:30:35.757Z,41.96
2023-03-17T23:33:04.877Z,42.03
2023-03-17T23:35:32.299Z,41.83
2023-03-17T23:37:59.235Z,42.16
2023-03-17T23:40:25.685Z,41.80
2023-03-17T23:42:54.380Z,41.90
2023-03-17T23:45:23.225Z,42.01
2023-03-17T23:47:52.094Z,42.19
2023-03-17T23:50:19.938Z,41.95
2023-03-17T23:52:47.169Z,42.20
2023-03-17T23:55:14.612Z,42.20
2023-03-17T23:57:41.539Z,41.75
